createdAt,value
2022-12-13T00:01:45.315Z,-6.30
2022-12-13T00:04:13.750Z,-6.30
2022-12-13T00:06:41.054Z,-6.30
2022-12-13T00:09:08.290Z,-6.30
2022-12-13T00:11:35.971Z,-6.30
2022-12-13T00:14:03.251Z,-6.30
2022-12-13T00:16:30.565Z,-6.40
2022-12-13T00:19:00.645Z,-6.30
2022-12-13T00:21:29.478Z,-6.30
2022-12-13T00:23:57.076Z,-6.30
2022-12-13T00:26:26.248Z,-6.40
2022-12-13T00:28:54.164Z,-6.40
2022-12-13T00:34:10.294Z,-6.40
2022-12-13T00:36:37.513Z,-6.50
2022-12-13T00:39:04.732Z,-6.50
2022-12-13T00:41:33.924Z,-6.50
2022-12-13T00:44:01.506Z,-6.50
2022-12-13T00:46:28.990Z,-6.60
2022-12-13T00:48:58.655Z,-6.60
2022-12-13T00:51:26.622Z,-6.80
2022-12-13T00:53:53.889Z,-6.90
2022-12-13T00:56:23.418Z,-6.80
2022-12-13T00:58:52.338Z,-6.80
2022-12-13T01:01:24.453Z,-6.80
2022-12-13T01:03:53.628Z,-6.80
2022-12-13T01:06:29.691Z,-6.80
2022-12-13T01:08:57.074Z,-6.80
2022-12-13T01:11:25.727Z,-6.80
2022-12-13T01:13:52.945Z,-6.90
2022-12-13T01:16:20.181Z,-6.80
2022-12-13T01:18:47.447Z,-6.80
2022-12-13T01:21:16.465Z,-6.80
2022-12-13T01:23:43.815Z,-6.80
2022-12-13T01:26:16.283Z,-6.70
2022-12-13T01:28:43.679Z,-6.70
2022-12-13T01:31:15.580Z,-6.70
2022-12-13T01:33:42.829Z,-6.70
2022-12-13T01:36:15.308Z,-6.70
2022-12-13T01:38:42.566Z,-6.70
2022-12-13T01:41:17.502Z,-6.80
2022-12-13T01:43:48.353Z,-6.70
2022-12-13T01:46:16.712Z,-6.80
2022-12-13T01:49:19.698Z,-6.80
2022-12-13T01:52:00.552Z,-6.80
2022-12-13T01:54:33.843Z,-6.80
2022-12-13T01:57:02.236Z,-6.90
2022-12-13T01:59:30.426Z,-6.90
2022-12-13T02:02:00.615Z,-7.00
2022-12-13T02:04:44.655Z,-7.00
2022-12-13T02:07:14.238Z,-7.00
2022-12-13T02:09:56.913Z,-7.00
2022-12-13T02:12:30.475Z,-7.00
2022-12-13T02:15:05.767Z,-7.00
2022-12-13T02:17:56.556Z,-7.00
2022-12-13T02:20:58.531Z,-7.00
2022-12-13T02:23:54.774Z,-7.10
2022-12-13T02:26:46.283Z,-7.10
2022-12-13T02:29:30.616Z,-7.10
2022-12-13T02:32:08.298Z,-7.20
2022-12-13T02:34:41.435Z,-7.20
2022-12-13T02:37:18.659Z,-7.20
2022-12-13T02:39:57.220Z,-7.20
2022-12-13T02:42:27.217Z,-7.20
2022-12-13T02:45:03.398Z,-7.30
2022-12-13T02:47:30.804Z,-7.20
2022-12-13T02:49:59.413Z,-7.30
2022-12-13T02:52:27.555Z,-7.20
2022-12-13T02:54:55.565Z,-7.20
2022-12-13T02:57:36.084Z,-7.20
2022-12-13T03:00:09.507Z,-7.20
2022-12-13T03:02:50.490Z,-7.20
2022-12-13T03:05:51.771Z,-7.20
2022-12-13T03:08:23.621Z,-7.20
2022-12-13T03:11:04.365Z,-7.20
2022-12-13T03:13:45.004Z,-7.40
2022-12-13T03:16:36.485Z,-7.50
2022-12-13T03:19:07.953Z,-7.50
2022-12-13T03:21:47.011Z,-7.50
2022-12-13T03:24:16.847Z,-7.50
2022-12-13T03:26:44.211Z,-7.50
2022-12-13T03:29:11.443Z,-7.60
2022-12-13T03:35:44.837Z,-7.60
2022-12-13T03:38:22.379Z,-7.60
2022-12-13T03:41:05.749Z,-7.60
2022-12-13T03:43:32.910Z,-7.60
2022-12-13T03:46:01.233Z,-7.50
2022-12-13T03:48:28.512Z,-7.50
2022-12-13T03:50:55.903Z,-7.50
2022-12-13T03:53:32.387Z,-7.60
2022-12-13T03:56:05.613Z,-7.70
2022-12-13T03:58:35.795Z,-7.70
2022-12-13T04:01:12.510Z,-7.60
2022-12-13T04:03:40.657Z,-7.60
2022-12-13T04:06:08.249Z,-7.70
2022-12-13T04:08:35.715Z,-7.60
2022-12-13T04:11:25.798Z,-7.70
2022-12-13T04:13:53.779Z,-7.60
2022-12-13T04:16:21.356Z,-7.60
2022-12-13T04:18:48.714Z,-7.60
2022-12-13T04:21:15.969Z,-7.70
2022-12-13T04:23:43.166Z,-7.70
2022-12-13T04:26:10.414Z,-7.70
2022-12-13T04:28:37.630Z,-7.60
2022-12-13T04:31:04.927Z,-7.60
2022-12-13T04:33:33.303Z,-7.60
2022-12-13T04:36:00.556Z,-7.60
2022-12-13T04:38:27.754Z,-7.70
2022-12-13T04:41:07.449Z,-7.70
2022-12-13T04:43:34.777Z,-7.80
2022-12-13T04:46:01.990Z,-7.70
2022-12-13T04:48:30.863Z,-7.70
2022-12-13T04:51:01.093Z,-7.70
2022-12-13T04:53:31.812Z,-7.80
2022-12-13T04:55:59.478Z,-7.70
2022-12-13T04:58:27.386Z,-7.80
2022-12-13T05:00:54.744Z,-7.80
2022-12-13T05:03:22.354Z,-7.90
2022-12-13T05:05:49.593Z,-7.90
2022-12-13T05:08:16.901Z,-7.80
2022-12-13T05:10:44.237Z,-7.70
2022-12-13T05:13:11.427Z,-7.70
2022-12-13T05:15:38.671Z,-7.70
2022-12-13T05:18:09.827Z,-7.70
2022-12-13T05:20:41.107Z,-7.70
2022-12-13T05:23:09.341Z,-7.60
2022-12-13T05:25:37.099Z,-7.60
2022-12-13T05:28:09.096Z,-7.50
2022-12-13T05:30:52.815Z,-7.50
2022-12-13T05:33:22.563Z,-7.40
2022-12-13T05:35:49.930Z,-7.50
2022-12-13T05:38:17.481Z,-7.50
2022-12-13T05:40:44.729Z,-7.60
2022-12-13T05:43:21.305Z,-7.70
2022-12-13T05:45:49.873Z,-7.60
2022-12-13T05:48:24.202Z,-7.60
2022-12-13T05:51:10.795Z,-7.60
2022-12-13T05:53:41.694Z,-7.60
2022-12-13T05:56:10.103Z,-7.50
2022-12-13T05:58:38.324Z,-7.50
2022-12-13T06:01:08.005Z,-7.50
2022-12-13T06:03:35.710Z,-7.40
2022-12-13T06:06:04.034Z,-7.40
2022-12-13T06:08:31.341Z,-7.40
2022-12-13T06:11:10.760Z,-7.40
2022-12-13T06:13:43.830Z,-7.40
2022-12-13T06:16:22.616Z,-7.50
2022-12-13T06:18:57.531Z,-7.50
2022-12-13T06:21:43.477Z,-7.50
2022-12-13T06:24:14.840Z,-7.40
2022-12-13T06:26:42.086Z,-7.40
2022-12-13T06:29:10.430Z,-7.40
2022-12-13T06:31:38.306Z,-7.30
2022-12-13T06:34:14.182Z,-7.30
2022-12-13T06:36:43.118Z,-7.30
2022-12-13T06:39:10.330Z,-7.30
2022-12-13T06:41:37.655Z,-7.30
2022-12-13T06:44:05.220Z,-7.30
2022-12-13T06:46:32.663Z,-7.40
2022-12-13T06:49:00.118Z,-7.50
2022-12-13T06:51:32.523Z,-7.50
2022-12-13T06:54:02.575Z,-7.40
2022-12-13T06:56:30.121Z,-7.40
2022-12-13T06:59:01.649Z,-7.50
2022-12-13T07:01:37.643Z,-7.40
2022-12-13T07:04:30.067Z,-7.50
2022-12-13T07:07:01.536Z,-7.40
2022-12-13T07:09:32.584Z,-7.40
2022-12-13T07:11:59.953Z,-7.40
2022-12-13T07:14:27.324Z,-7.30
2022-12-13T07:16:59.571Z,-7.30
2022-12-13T07:19:35.244Z,-7.30
2022-12-13T07:22:09.495Z,-7.30
2022-12-13T07:24:36.767Z,-7.30
2022-12-13T07:27:04.530Z,-7.20
2022-12-13T07:29:31.856Z,-7.20
2022-12-13T07:32:01.496Z,-7.10
2022-12-13T07:34:30.316Z,-7.10
2022-12-13T07:36:57.633Z,-7.30
2022-12-13T07:39:28.426Z,-7.20
2022-12-13T07:41:56.099Z,-7.10
2022-12-13T07:44:23.998Z,-7.10
2022-12-13T07:46:51.291Z,-7.10
2022-12-13T07:49:18.695Z,-7.10
2022-12-13T07:51:45.908Z,-7.10
2022-12-13T07:54:13.103Z,-6.90
2022-12-13T07:56:40.304Z,-6.80
2022-12-13T07:59:07.506Z,-6.80
2022-12-13T08:01:35.135Z,-6.80
2022-12-13T08:04:03.041Z,-6.80
2022-12-13T08:06:34.399Z,-6.80
2022-12-13T08:09:01.807Z,-6.90
2022-12-13T08:11:29.039Z,-7.00
2022-12-13T08:13:56.227Z,-7.00
2022-12-13T08:16:26.117Z,-6.90
2022-12-13T08:19:03.001Z,-6.80
2022-12-13T08:21:54.435Z,-6.60
2022-12-13T08:24:28.882Z,-6.50
2022-12-13T08:27:03.288Z,-6.40
2022-12-13T08:29:33.299Z,-6.30
2022-12-13T08:32:08.258Z,-6.20
2022-12-13T08:34:35.465Z,-6.20
2022-12-13T08:37:04.190Z,-6.10
2022-12-13T08:39:35.347Z,-6.20
2022-12-13T08:42:17.212Z,-6.10
2022-12-13T08:44:49.909Z,-6.10
2022-12-13T08:47:22.934Z,-5.90
2022-12-13T08:50:01.406Z,-5.80
2022-12-13T08:52:40.149Z,-5.80
2022-12-13T08:55:10.033Z,-5.80
2022-12-13T08:57:37.757Z,-5.70
2022-12-13T09:00:05.963Z,-5.70
2022-12-13T09:02:38.457Z,-5.70
2022-12-13T09:05:07.272Z,-5.70
2022-12-13T09:07:36.071Z,-5.70
2022-12-13T09:10:26.405Z,-5.60
2022-12-13T09:13:01.923Z,-5.50
2022-12-13T09:15:34.429Z,-5.70
2022-12-13T09:18:04.529Z,-5.70
2022-12-13T09:20:41.221Z,-5.80
2022-12-13T09:23:14.254Z,-5.70
2022-12-13T09:25:55.764Z,-5.70
2022-12-13T09:28:23.219Z,-5.70
2022-12-13T09:30:50.578Z,-5.70
2022-12-13T09:33:30.733Z,-5.50
2022-12-13T09:36:01.296Z,-5.30
2022-12-13T09:38:35.727Z,-5.00
2022-12-13T09:41:10.942Z,-4.90
2022-12-13T09:43:48.823Z,-4.80
2022-12-13T09:46:25.339Z,-4.80
2022-12-13T09:48:53.497Z,-4.80
2022-12-13T09:51:43.770Z,-4.90
2022-12-13T09:54:18.133Z,-4.70
2022-12-13T09:56:50.523Z,-4.80
2022-12-13T09:59:25.264Z,-4.80
2022-12-13T10:01:52.506Z,-4.70
2022-12-13T10:04:19.794Z,-4.60
2022-12-13T10:06:47.323Z,-4.60
2022-12-13T10:09:14.584Z,-4.80
2022-12-13T10:11:50.840Z,-4.90
2022-12-13T10:14:31.899Z,-4.90
2022-12-13T10:17:00.419Z,-4.80
2022-12-13T10:19:39.508Z,-4.70
2022-12-13T10:22:11.169Z,-4.80
2022-12-13T10:24:55.507Z,-4.60
2022-12-13T10:27:29.265Z,-4.50
2022-12-13T10:29:57.299Z,-4.40
2022-12-13T10:32:24.492Z,-4.40
2022-12-13T10:34:51.761Z,-4.30
2022-12-13T10:37:31.414Z,-4.20
2022-12-13T10:39:59.017Z,-4.00
2022-12-13T10:42:32.093Z,-4.10
2022-12-13T10:45:14.627Z,-4.50
2022-12-13T10:47:45.304Z,-4.40
2022-12-13T10:50:26.919Z,-4.30
2022-12-13T10:52:54.590Z,-4.10
2022-12-13T10:55:32.406Z,-4.00
2022-12-13T10:58:07.075Z,-4.10
2022-12-13T11:00:34.330Z,-3.90
2022-12-13T11:03:01.572Z,-3.70
2022-12-13T11:05:30.566Z,-3.40
2022-12-13T11:08:16.427Z,-3.30
2022-12-13T11:10:43.913Z,-3.20
2022-12-13T11:13:22.699Z,-3.20
2022-12-13T11:15:56.696Z,-3.30
2022-12-13T11:18:24.800Z,-3.40
2022-12-13T11:20:57.717Z,-3.60
2022-12-13T11:23:32.980Z,-3.50
2022-12-13T11:26:01.871Z,-3.30
2022-12-13T11:29:02.816Z,-3.10
2022-12-13T11:31:53.174Z,-2.90
2022-12-13T11:34:45.146Z,-2.90
2022-12-13T11:37:33.759Z,-2.80
2022-12-13T11:40:05.242Z,-2.50
2022-12-13T11:42:56.044Z,-2.30
2022-12-13T11:45:39.233Z,-2.30
2022-12-13T11:48:09.581Z,-2.40
2022-12-13T11:50:41.313Z,-2.70
2022-12-13T11:53:20.809Z,-2.60
2022-12-13T11:56:13.229Z,-2.50
2022-12-13T11:59:02.510Z,-2.20
2022-12-13T12:01:44.468Z,-2.00
2022-12-13T12:04:39.585Z,-2.20
2022-12-13T12:07:31.736Z,-2.20
2022-12-13T12:10:26.482Z,-2.10
2022-12-13T12:12:57.730Z,-2.20
2022-12-13T12:15:27.538Z,-2.20
2022-12-13T12:17:57.859Z,-2.20
2022-12-13T12:20:44.413Z,-2.10
2022-12-13T12:23:52.749Z,-2.00
2022-12-13T12:26:24.193Z,-2.10
2022-12-13T12:29:45.815Z,-1.90
2022-12-13T12:32:33.273Z,-2.00
2022-12-13T12:35:12.459Z,-1.90
2022-12-13T12:37:39.648Z,-2.00
2022-12-13T12:40:16.010Z,-1.90
2022-12-13T12:43:14.272Z,-1.80
2022-12-13T12:46:20.891Z,-1.80
2022-12-13T12:49:09.616Z,-1.90
2022-12-13T12:51:55.935Z,-1.90
2022-12-13T12:54:35.170Z,-2.10
2022-12-13T12:57:14.310Z,-2.40
2022-12-13T13:00:03.939Z,-2.40
2022-12-13T13:03:13.634Z,-2.40
2022-12-13T13:06:03.048Z,-2.40
2022-12-13T13:08:51.615Z,-2.30
2022-12-13T13:11:25.947Z,-2.40
2022-12-13T13:14:19.787Z,-2.70
2022-12-13T13:16:47.220Z,-2.50
2022-12-13T13:19:14.373Z,-2.50
2022-12-13T13:22:02.483Z,-2.50
2022-12-13T13:24:34.554Z,-2.50
2022-12-13T13:27:11.009Z,-2.40
2022-12-13T13:29:43.684Z,-2.40
2022-12-13T13:32:11.338Z,-2.60
2022-12-13T13:34:43.451Z,-2.60
2022-12-13T13:37:23.475Z,-2.70
2022-12-13T13:40:02.002Z,-2.80
2022-12-13T13:42:32.937Z,-2.80
2022-12-13T13:45:24.723Z,-2.80
2022-12-13T13:48:03.654Z,-2.80
2022-12-13T13:51:20.112Z,-2.80
2022-12-13T13:54:11.847Z,-2.90
2022-12-13T13:57:09.768Z,-2.80
2022-12-13T14:00:02.314Z,-2.80
2022-12-13T14:03:32.916Z,-2.80
2022-12-13T14:06:37.396Z,-2.80
2022-12-13T14:09:31.245Z,-2.70
2022-12-13T14:12:36.290Z,-2.70
2022-12-13T14:15:21.554Z,-2.90
2022-12-13T14:18:27.726Z,-2.80
2022-12-13T14:21:24.902Z,-3.00
2022-12-13T14:28:09.734Z,-3.10
2022-12-13T14:30:48.224Z,-3.20
2022-12-13T14:33:25.219Z,-3.40
2022-12-13T14:35:59.897Z,-3.50
2022-12-13T14:38:29.760Z,-3.40
2022-12-13T14:41:01.575Z,-3.40
2022-12-13T14:43:30.542Z,-3.40
2022-12-13T14:45:59.425Z,-3.50
2022-12-13T14:48:28.981Z,-3.60
2022-12-13T14:50:56.845Z,-3.60
2022-12-13T14:53:37.767Z,-3.70
2022-12-13T14:56:27.600Z,-3.80
2022-12-13T14:59:01.168Z,-3.80
2022-12-13T15:01:36.099Z,-3.80
2022-12-13T15:04:19.293Z,-3.80
2022-12-13T15:06:48.399Z,-3.80
2022-12-13T15:09:16.134Z,-3.80
2022-12-13T15:11:44.078Z,-3.80
2022-12-13T15:14:18.805Z,-3.80
2022-12-13T15:16:50.522Z,-3.90
2022-12-13T15:19:31.028Z,-3.90
2022-12-13T15:22:05.517Z,-3.90
2022-12-13T15:24:48.382Z,-3.90
2022-12-13T15:27:19.305Z,-4.00
2022-12-13T15:29:47.414Z,-4.00
2022-12-13T15:32:18.857Z,-4.00
2022-12-13T15:34:47.460Z,-4.10
2022-12-13T15:37:35.857Z,-4.10
2022-12-13T15:40:08.183Z,-4.00
2022-12-13T15:42:36.945Z,-4.10
2022-12-13T15:45:06.348Z,-4.10
2022-12-13T15:47:33.572Z,-4.20
2022-12-13T15:50:02.780Z,-4.20
2022-12-13T15:52:41.200Z,-4.20
2022-12-13T15:55:08.521Z,-4.40
2022-12-13T15:57:51.517Z,-4.50
2022-12-13T16:00:29.087Z,-4.50
2022-12-13T16:03:13.085Z,-4.50
2022-12-13T16:05:48.640Z,-4.60
2022-12-13T16:08:30.458Z,-4.60
2022-12-13T16:10:58.216Z,-4.50
2022-12-13T16:13:29.423Z,-4.50
2022-12-13T16:16:09.462Z,-4.60
2022-12-13T16:18:54.035Z,-4.60
2022-12-13T16:21:21.281Z,-4.50
2022-12-13T16:23:49.301Z,-4.50
2022-12-13T16:26:25.570Z,-4.50
2022-12-13T16:28:53.999Z,-4.50
2022-12-13T16:31:25.382Z,-4.50
2022-12-13T16:33:52.718Z,-4.50
2022-12-13T16:36:20.009Z,-4.50
2022-12-13T16:38:47.341Z,-4.50
2022-12-13T16:41:15.565Z,-4.50
2022-12-13T16:44:02.021Z,-4.50
2022-12-13T16:47:12.654Z,-4.50
2022-12-13T16:49:26.135Z,-4.50
2022-12-13T16:51:53.908Z,-4.70
2022-12-13T16:54:21.770Z,-4.80
2022-12-13T16:56:49.254Z,-4.80
2022-12-13T16:59:26.349Z,-4.80
2022-12-13T17:01:53.742Z,-4.80
2022-12-13T17:04:22.410Z,-4.70
2022-12-13T17:06:50.266Z,-4.70
2022-12-13T17:09:18.046Z,-4.70
2022-12-13T17:11:45.293Z,-4.80
2022-12-13T17:14:12.518Z,-4.80
2022-12-13T17:16:39.809Z,-4.80
2022-12-13T17:19:07.069Z,-4.70
2022-12-13T17:21:34.530Z,-4.80
2022-12-13T17:24:02.851Z,-4.80
2022-12-13T17:26:30.029Z,-4.80
2022-12-13T17:28:57.241Z,-4.80
2022-12-13T17:31:25.259Z,-4.80
2022-12-13T17:33:53.581Z,-4.90
2022-12-13T17:36:20.823Z,-4.80
2022-12-13T17:38:48.134Z,-4.80
2022-12-13T17:41:15.448Z,-4.80
2022-12-13T17:43:43.381Z,-4.80
2022-12-13T17:46:16.165Z,-4.80
2022-12-13T17:48:45.358Z,-4.90
2022-12-13T17:51:12.927Z,-4.80
2022-12-13T17:53:40.447Z,-4.90
2022-12-13T17:56:08.888Z,-4.90
2022-12-13T17:58:36.114Z,-4.90
2022-12-13T18:01:20.013Z,-4.90
2022-12-13T18:03:49.944Z,-5.00
2022-12-13T18:06:17.199Z,-5.00
2022-12-13T18:08:44.787Z,-5.00
2022-12-13T18:13:59.779Z,-4.90
2022-12-13T18:16:34.060Z,-4.80
2022-12-13T18:19:05.814Z,-4.80
2022-12-13T18:21:33.105Z,-4.80
2022-12-13T18:24:00.594Z,-4.80
2022-12-13T18:26:27.819Z,-4.70
2022-12-13T18:28:55.039Z,-4.80
2022-12-13T18:31:23.578Z,-4.80
2022-12-13T18:33:51.718Z,-4.80
2022-12-13T18:36:20.164Z,-4.80
2022-12-13T18:38:47.874Z,-4.90
2022-12-13T18:41:17.215Z,-4.90
2022-12-13T18:43:44.893Z,-4.90
2022-12-13T18:46:12.499Z,-5.00
2022-12-13T18:48:39.862Z,-5.00
2022-12-13T18:51:07.989Z,-5.00
2022-12-13T18:53:35.458Z,-5.00
2022-12-13T18:56:16.139Z,-5.00
2022-12-13T18:58:46.346Z,-4.90
2022-12-13T19:01:13.840Z,-4.90
2022-12-13T19:03:42.428Z,-5.00
2022-12-13T19:06:11.139Z,-5.00
2022-12-13T19:08:38.326Z,-4.90
2022-12-13T19:11:05.909Z,-4.90
2022-12-13T19:13:33.245Z,-4.90
2022-12-13T19:16:05.651Z,-4.90
2022-12-13T19:18:33.041Z,-4.90
2022-12-13T19:21:00.285Z,-4.90
2022-12-13T19:23:28.204Z,-4.90
2022-12-13T19:25:55.803Z,-4.90
2022-12-13T19:28:23.030Z,-4.80
2022-12-13T19:30:50.397Z,-4.80
2022-12-13T19:33:18.401Z,-4.80
2022-12-13T19:35:46.523Z,-4.80
2022-12-13T19:38:13.903Z,-4.80
2022-12-13T19:40:42.168Z,-4.80
2022-12-13T19:43:11.187Z,-4.80
2022-12-13T19:45:38.649Z,-4.80
2022-12-13T19:48:06.025Z,-4.80
2022-12-13T19:50:33.408Z,-4.80
2022-12-13T19:53:00.804Z,-4.90
2022-12-13T19:55:28.215Z,-5.00
2022-12-13T19:57:55.698Z,-4.90
2022-12-13T20:00:23.158Z,-5.00
2022-12-13T20:02:50.683Z,-4.90
2022-12-13T20:05:18.387Z,-4.90
2022-12-13T20:07:45.809Z,-4.90
2022-12-13T20:10:15.972Z,-4.90
2022-12-13T20:12:45.755Z,-4.90
2022-12-13T20:15:13.330Z,-4.90
2022-12-13T20:17:41.829Z,-4.80
2022-12-13T20:20:09.985Z,-4.80
2022-12-13T20:22:37.620Z,-4.80
2022-12-13T20:25:07.098Z,-4.70
2022-12-13T20:27:34.820Z,-4.70
2022-12-13T20:30:02.396Z,-4.80
2022-12-13T20:32:29.893Z,-5.00
2022-12-13T20:34:57.861Z,-5.00
2022-12-13T20:37:27.420Z,-5.00
2022-12-13T20:39:54.882Z,-5.00
2022-12-13T20:42:22.346Z,-4.90
2022-12-13T20:44:51.025Z,-4.80
2022-12-13T20:47:18.390Z,-4.80
2022-12-13T20:49:48.601Z,-4.80
2022-12-13T20:52:17.091Z,-4.80
2022-12-13T20:54:44.518Z,-4.90
2022-12-13T20:57:11.766Z,-4.90
2022-12-13T20:59:39.056Z,-4.80
2022-12-13T21:02:06.298Z,-4.90
2022-12-13T21:04:33.683Z,-4.90
2022-12-13T21:07:02.532Z,-4.90
2022-12-13T21:09:29.794Z,-4.90
2022-12-13T21:11:57.700Z,-4.80
2022-12-13T21:14:26.471Z,-4.80
2022-12-13T21:16:55.241Z,-4.70
2022-12-13T21:19:35.898Z,-4.80
2022-12-13T21:22:06.656Z,-4.80
2022-12-13T21:24:33.836Z,-4.90
2022-12-13T21:27:01.087Z,-4.80
2022-12-13T21:29:28.324Z,-4.80
2022-12-13T21:31:55.962Z,-4.80
2022-12-13T21:34:23.554Z,-4.90
2022-12-13T21:36:52.203Z,-4.80
2022-12-13T21:39:24.381Z,-4.90
2022-12-13T21:41:52.098Z,-5.00
2022-12-13T21:44:19.307Z,-5.00
2022-12-13T21:49:34.009Z,-4.80
2022-12-13T21:52:01.202Z,-4.90
2022-12-13T21:54:28.374Z,-4.90
2022-12-13T21:57:14.431Z,-5.00
2022-12-13T21:59:41.623Z,-4.90
2022-12-13T22:02:17.817Z,-4.90
2022-12-13T22:04:46.132Z,-5.00
2022-12-13T22:07:18.688Z,-4.90
2022-12-13T22:09:46.335Z,-4.70
2022-12-13T22:12:35.457Z,-4.60
2022-12-13T22:15:04.492Z,-4.50
2022-12-13T22:17:35.554Z,-4.50
2022-12-13T22:20:08.368Z,-4.50
2022-12-13T22:22:35.720Z,-4.50
2022-12-13T22:25:02.944Z,-4.40
2022-12-13T22:27:30.313Z,-4.50
2022-12-13T22:29:57.821Z,-4.50
2022-12-13T22:32:26.835Z,-4.60
2022-12-13T22:34:54.150Z,-4.60
2022-12-13T22:37:21.521Z,-4.50
2022-12-13T22:39:48.696Z,-4.50
2022-12-13T22:42:15.929Z,-4.40
2022-12-13T22:44:43.316Z,-4.30
2022-12-13T22:47:10.486Z,-4.40
2022-12-13T22:49:37.680Z,-4.40
2022-12-13T22:52:05.231Z,-4.40
2022-12-13T22:54:32.406Z,-4.30
2022-12-13T22:56:59.602Z,-4.20
2022-12-13T22:59:26.797Z,-4.10
2022-12-13T23:02:02.059Z,-4.10
2022-12-13T23:04:29.938Z,-4.10
2022-12-13T23:06:57.425Z,-4.00
2022-12-13T23:09:24.605Z,-4.10
2022-12-13T23:12:10.322Z,-4.10
2022-12-13T23:14:37.500Z,-4.00
2022-12-13T23:17:04.889Z,-4.00
2022-12-13T23:19:53.376Z,-4.00
2022-12-13T23:22:21.777Z,-4.00
2022-12-13T23:24:49.740Z,-4.00
2022-12-13T23:27:17.239Z,-4.00
2022-12-13T23:29:44.684Z,-4.10
2022-12-13T23:32:12.326Z,-4.10
2022-12-13T23:34:39.505Z,-4.00
2022-12-13T23:37:06.675Z,-4.00
2022-12-13T23:39:33.923Z,-4.00
2022-12-13T23:42:01.091Z,-3.90
2022-12-13T23:44:28.459Z,-3.90
2022-12-13T23:46:55.898Z,-4.00
2022-12-13T23:49:23.090Z,-4.00
2022-12-13T23:51:50.266Z,-4.00
2022-12-13T23:54:19.411Z,-4.10
2022-12-13T23:56:47.045Z,-4.10
2022-12-13T23:59:14.250Z,-4.20
